sensor_id;sensor_type;location;lat;lon;timestamp;temperature;humidity
80274;DHT22;69576;51.902;-8.462;2023-11-21T00:02:22;13.70;73.10
80274;DHT22;69576;51.902;-8.462;2023-11-21T00:04:48;13.70;73.20
80274;DHT22;69576;51.902;-8.462;2023-11-21T00:07:14;13.60;72.90
80274;DHT22;69576;51.902;-8.462;2023-11-21T00:09:41;13.60;73.00
80274;DHT22;69576;51.902;-8.462;2023-11-21T00:12:08;13.60;73.00
80274;DHT22;69576;51.902;-8.462;2023-11-21T00:14:40;13.60;73.20
80274;DHT22;69576;51.902;-8.462;2023-11-21T00:17:06;13.60;73.30
80274;DHT22;69576;51.902;-8.462;2023-11-21T00:19:32;13.60;73.30
80274;DHT22;69576;51.902;-8.462;2023-11-21T00:22:01;13.60;72.60
80274;DHT22;69576;51.902;-8.462;2023-11-21T00:24:29;13.60;73.00
80274;DHT22;69576;51.902;-8.462;2023-11-21T00:26:56;13.60;72.90
80274;DHT22;69576;51.902;-8.462;2023-11-21T00:29:22;13.60;73.40
80274;DHT22;69576;51.902;-8.462;2023-11-21T00:31:48;13.60;72.90
80274;DHT22;69576;51.902;-8.462;2023-11-21T00:34:18;13.60;72.90
80274;DHT22;69576;51.902;-8.462;2023-11-21T00:36:45;13.50;72.60
80274;DHT22;69576;51.902;-8.462;2023-11-21T00:39:13;13.50;72.40
80274;DHT22;69576;51.902;-8.462;2023-11-21T00:41:39;13.50;72.70
80274;DHT22;69576;51.902;-8.462;2023-11-21T00:44:05;13.50;72.70
80274;DHT22;69576;51.902;-8.462;2023-11-21T00:46:34;13.50;72.70
80274;DHT22;69576;51.902;-8.462;2023-11-21T00:49:02;13.50;72.80
80274;DHT22;69576;51.902;-8.462;2023-11-21T00:51:30;13.50;72.70
80274;DHT22;69576;51.902;-8.462;2023-11-21T00:53:55;13.50;73.20
80274;DHT22;69576;51.902;-8.462;2023-11-21T00:56:24;13.50;72.50
80274;DHT22;69576;51.902;-8.462;2023-11-21T00:58:50;13.40;72.20
80274;DHT22;69576;51.902;-8.462;2023-11-21T01:01:18;13.40;72.30
80274;DHT22;69576;51.902;-8.462;2023-11-21T01:03:46;13.30;72.60
80274;DHT22;69576;51.902;-8.462;2023-11-21T01:06:12;13.30;72.60
80274;DHT22;69576;51.902;-8.462;2023-11-21T01:08:38;13.30;72.50
80274;DHT22;69576;51.902;-8.462;2023-11-21T01:11:04;13.30;72.70
80274;DHT22;69576;51.902;-8.462;2023-11-21T01:13:33;13.30;72.90
80274;DHT22;69576;51.902;-8.462;2023-11-21T01:15:58;13.30;73.10
80274;DHT22;69576;51.902;-8.462;2023-11-21T01:18:24;13.30;73.10
80274;DHT22;69576;51.902;-8.462;2023-11-21T01:20:54;13.30;72.80
80274;DHT22;69576;51.902;-8.462;2023-11-21T01:23:20;13.30;72.70
80274;DHT22;69576;51.902;-8.462;2023-11-21T01:25:48;13.30;73.30
80274;DHT22;69576;51.902;-8.462;2023-11-21T01:28:14;13.30;73.00
80274;DHT22;69576;51.902;-8.462;2023-11-21T01:30:40;13.30;72.60
80274;DHT22;69576;51.902;-8.462;2023-11-21T01:33:06;13.30;73.30
80274;DHT22;69576;51.902;-8.462;2023-11-21T01:35:32;13.30;72.60
80274;DHT22;69576;51.902;-8.462;2023-11-21T01:37:57;13.20;72.80
80274;DHT22;69576;51.902;-8.462;2023-11-21T01:40:23;13.20;72.90
80274;DHT22;69576;51.902;-8.462;2023-11-21T01:42:50;13.10;73.00
80274;DHT22;69576;51.902;-8.462;2023-11-21T01:45:18;13.10;73.30
80274;DHT22;69576;51.902;-8.462;2023-11-21T01:47:44;13.10;72.50
80274;DHT22;69576;51.902;-8.462;2023-11-21T01:50:16;13.10;73.00
80274;DHT22;69576;51.902;-8.462;2023-11-21T01:52:46;13.10;72.40
80274;DHT22;69576;51.902;-8.462;2023-11-21T01:55:15;13.10;72.40
80274;DHT22;69576;51.902;-8.462;2023-11-21T01:57:43;13.10;72.20
80274;DHT22;69576;51.902;-8.462;2023-11-21T02:00:10;13.10;72.90
80274;DHT22;69576;51.902;-8.462;2023-11-21T02:02:46;13.10;72.50
80274;DHT22;69576;51.902;-8.462;2023-11-21T02:05:18;13.10;73.30
80274;DHT22;69576;51.902;-8.462;2023-11-21T02:07:45;13.00;72.60
80274;DHT22;69576;51.902;-8.462;2023-11-21T02:10:14;13.00;72.50
80274;DHT22;69576;51.902;-8.462;2023-11-21T02:12:43;13.00;72.20
80274;DHT22;69576;51.902;-8.462;2023-11-21T02:15:13;13.00;72.50
80274;DHT22;69576;51.902;-8.462;2023-11-21T02:17:52;13.00;72.30
80274;DHT22;69576;51.902;-8.462;2023-11-21T02:20:20;13.00;72.60
80274;DHT22;69576;51.902;-8.462;2023-11-21T02:22:53;13.00;72.40
80274;DHT22;69576;51.902;-8.462;2023-11-21T02:25:30;13.00;74.00
80274;DHT22;69576;51.902;-8.462;2023-11-21T02:27:57;13.00;73.10
80274;DHT22;69576;51.902;-8.462;2023-11-21T02:30:30;13.00;72.50
80274;DHT22;69576;51.902;-8.462;2023-11-21T02:33:01;13.00;72.30
80274;DHT22;69576;51.902;-8.462;2023-11-21T02:35:26;12.90;72.90
80274;DHT22;69576;51.902;-8.462;2023-11-21T02:37:55;12.90;72.60
80274;DHT22;69576;51.902;-8.462;2023-11-21T02:40:21;12.90;72.90
80274;DHT22;69576;51.902;-8.462;2023-11-21T02:42:47;12.90;72.70
80274;DHT22;69576;51.902;-8.462;2023-11-21T02:45:17;12.90;72.60
80274;DHT22;69576;51.902;-8.462;2023-11-21T02:47:44;12.90;72.70
80274;DHT22;69576;51.902;-8.462;2023-11-21T02:50:10;12.90;72.30
80274;DHT22;69576;51.902;-8.462;2023-11-21T02:52:36;12.90;74.10
80274;DHT22;69576;51.902;-8.462;2023-11-21T02:55:08;12.90;72.80
80274;DHT22;69576;51.902;-8.462;2023-11-21T02:57:34;12.90;72.70
80274;DHT22;69576;51.902;-8.462;2023-11-21T03:00:02;12.90;73.10
80274;DHT22;69576;51.902;-8.462;2023-11-21T03:02:28;12.90;72.80
80274;DHT22;69576;51.902;-8.462;2023-11-21T03:04:54;12.90;72.50
80274;DHT22;69576;51.902;-8.462;2023-11-21T03:07:20;12.80;72.40
80274;DHT22;69576;51.902;-8.462;2023-11-21T03:09:51;12.80;72.50
80274;DHT22;69576;51.902;-8.462;2023-11-21T03:12:17;12.80;73.10
80274;DHT22;69576;51.902;-8.462;2023-11-21T03:14:45;12.80;73.20
80274;DHT22;69576;51.902;-8.462;2023-11-21T03:17:13;12.80;72.90
80274;DHT22;69576;51.902;-8.462;2023-11-21T03:19:42;12.80;73.20
80274;DHT22;69576;51.902;-8.462;2023-11-21T03:22:08;12.80;72.60
80274;DHT22;69576;51.902;-8.462;2023-11-21T03:24:35;12.80;72.70
80274;DHT22;69576;51.902;-8.462;2023-11-21T03:27:06;12.80;73.60
80274;DHT22;69576;51.902;-8.462;2023-11-21T03:29:34;12.80;73.00
80274;DHT22;69576;51.902;-8.462;2023-11-21T03:32:00;12.80;72.90
80274;DHT22;69576;51.902;-8.462;2023-11-21T03:34:29;12.80;72.80
80274;DHT22;69576;51.902;-8.462;2023-11-21T03:36:57;12.80;72.90
80274;DHT22;69576;51.902;-8.462;2023-11-21T03:39:25;12.80;73.00
80274;DHT22;69576;51.902;-8.462;2023-11-21T03:41:51;12.80;72.50
80274;DHT22;69576;51.902;-8.462;2023-11-21T03:44:17;12.80;73.00
80274;DHT22;69576;51.902;-8.462;2023-11-21T03:46:43;12.80;73.00
80274;DHT22;69576;51.902;-8.462;2023-11-21T03:49:09;12.80;72.90
80274;DHT22;69576;51.902;-8.462;2023-11-21T03:51:40;12.70;72.80
80274;DHT22;69576;51.902;-8.462;2023-11-21T03:54:08;12.80;73.30
80274;DHT22;69576;51.902;-8.462;2023-11-21T03:56:34;12.70;72.60
80274;DHT22;69576;51.902;-8.462;2023-11-21T03:59:02;12.70;72.90
80274;DHT22;69576;51.902;-8.462;2023-11-21T04:01:29;12.70;72.90
80274;DHT22;69576;51.902;-8.462;2023-11-21T04:03:54;12.70;73.00
80274;DHT22;69576;51.902;-8.462;2023-11-21T04:06:20;12.70;72.90
80274;DHT22;69576;51.902;-8.462;2023-11-21T04:08:46;12.80;74.10
80274;DHT22;69576;51.902;-8.462;2023-11-21T04:11:14;12.80;74.00
80274;DHT22;69576;51.902;-8.462;2023-11-21T04:13:42;12.80;74.10
80274;DHT22;69576;51.902;-8.462;2023-11-21T04:16:12;12.80;73.70
80274;DHT22;69576;51.902;-8.462;2023-11-21T04:18:38;12.80;74.30
80274;DHT22;69576;51.902;-8.462;2023-11-21T04:21:08;12.90;74.20
80274;DHT22;69576;51.902;-8.462;2023-11-21T04:23:34;12.90;74.60
80274;DHT22;69576;51.902;-8.462;2023-11-21T04:26:01;12.90;73.80
80274;DHT22;69576;51.902;-8.462;2023-11-21T04:28:31;12.90;74.00
80274;DHT22;69576;51.902;-8.462;2023-11-21T04:30:57;12.90;73.40
80274;DHT22;69576;51.902;-8.462;2023-11-21T04:33:23;12.90;73.70
80274;DHT22;69576;51.902;-8.462;2023-11-21T04:35:51;12.80;73.50
80274;DHT22;69576;51.902;-8.462;2023-11-21T04:38:17;12.80;73.40
80274;DHT22;69576;51.902;-8.462;2023-11-21T04:40:44;12.80;74.00
80274;DHT22;69576;51.902;-8.462;2023-11-21T04:43:10;12.80;73.90
80274;DHT22;69576;51.902;-8.462;2023-11-21T04:45:36;12.80;74.30
80274;DHT22;69576;51.902;-8.462;2023-11-21T04:48:04;12.90;74.30
80274;DHT22;69576;51.902;-8.462;2023-11-21T04:50:30;12.90;73.80
80274;DHT22;69576;51.902;-8.462;2023-11-21T04:52:59;12.80;73.90
80274;DHT22;69576;51.902;-8.462;2023-11-21T04:55:25;12.80;73.80
80274;DHT22;69576;51.902;-8.462;2023-11-21T04:57:53;12.80;74.20
80274;DHT22;69576;51.902;-8.462;2023-11-21T05:00:19;12.90;73.80
80274;DHT22;69576;51.902;-8.462;2023-11-21T05:02:49;12.80;73.50
80274;DHT22;69576;51.902;-8.462;2023-11-21T05:05:15;12.80;73.60
80274;DHT22;69576;51.902;-8.462;2023-11-21T05:07:44;12.80;73.80
80274;DHT22;69576;51.902;-8.462;2023-11-21T05:10:14;12.80;73.20
80274;DHT22;69576;51.902;-8.462;2023-11-21T05:12:42;12.80;73.40
80274;DHT22;69576;51.902;-8.462;2023-11-21T05:15:08;12.80;73.20
80274;DHT22;69576;51.902;-8.462;2023-11-21T05:17:42;12.80;73.10
80274;DHT22;69576;51.902;-8.462;2023-11-21T05:20:13;12.70;73.60
80274;DHT22;69576;51.902;-8.462;2023-11-21T05:22:43;12.80;74.00
80274;DHT22;69576;51.902;-8.462;2023-11-21T05:25:10;12.80;73.90
80274;DHT22;69576;51.902;-8.462;2023-11-21T05:27:39;12.80;74.40
80274;DHT22;69576;51.902;-8.462;2023-11-21T05:30:07;12.80;73.60
80274;DHT22;69576;51.902;-8.462;2023-11-21T05:32:38;12.80;73.80
80274;DHT22;69576;51.902;-8.462;2023-11-21T05:35:04;12.80;73.90
80274;DHT22;69576;51.902;-8.462;2023-11-21T05:37:35;12.80;74.80
80274;DHT22;69576;51.902;-8.462;2023-11-21T05:40:07;12.80;74.30
80274;DHT22;69576;51.902;-8.462;2023-11-21T05:42:36;12.80;73.70
80274;DHT22;69576;51.902;-8.462;2023-11-21T05:45:04;12.80;73.70
80274;DHT22;69576;51.902;-8.462;2023-11-21T05:47:45;12.80;73.70
80274;DHT22;69576;51.902;-8.462;2023-11-21T05:50:15;12.80;73.80
80274;DHT22;69576;51.902;-8.462;2023-11-21T05:52:46;12.80;73.60
80274;DHT22;69576;51.902;-8.462;2023-11-21T05:55:15;12.80;73.80
80274;DHT22;69576;51.902;-8.462;2023-11-21T05:57:42;12.80;73.60
80274;DHT22;69576;51.902;-8.462;2023-11-21T06:00:10;12.80;73.90
80274;DHT22;69576;51.902;-8.462;2023-11-21T06:02:40;12.80;73.70
80274;DHT22;69576;51.902;-8.462;2023-11-21T06:05:12;12.80;74.00
80274;DHT22;69576;51.902;-8.462;2023-11-21T06:07:40;12.80;73.40
80274;DHT22;69576;51.902;-8.462;2023-11-21T06:10:08;12.80;74.50
80274;DHT22;69576;51.902;-8.462;2023-11-21T06:12:41;12.80;73.80
80274;DHT22;69576;51.902;-8.462;2023-11-21T06:15:09;12.80;73.60
80274;DHT22;69576;51.902;-8.462;2023-11-21T06:17:41;12.80;74.10
80274;DHT22;69576;51.902;-8.462;2023-11-21T06:20:13;12.80;73.60
80274;DHT22;69576;51.902;-8.462;2023-11-21T06:22:42;12.80;73.80
80274;DHT22;69576;51.902;-8.462;2023-11-21T06:25:09;12.80;74.50
80274;DHT22;69576;51.902;-8.462;2023-11-21T06:27:44;12.80;74.10
80274;DHT22;69576;51.902;-8.462;2023-11-21T06:30:10;12.80;74.00
80274;DHT22;69576;51.902;-8.462;2023-11-21T06:32:39;12.80;73.80
80274;DHT22;69576;51.902;-8.462;2023-11-21T06:35:06;12.80;73.90
80274;DHT22;69576;51.902;-8.462;2023-11-21T06:37:33;12.80;73.70
80274;DHT22;69576;51.902;-8.462;2023-11-21T06:40:01;12.80;73.80
80274;DHT22;69576;51.902;-8.462;2023-11-21T06:42:30;12.80;73.80
80274;DHT22;69576;51.902;-8.462;2023-11-21T06:45:00;12.80;73.90
80274;DHT22;69576;51.902;-8.462;2023-11-21T06:47:29;12.80;74.30
80274;DHT22;69576;51.902;-8.462;2023-11-21T06:49:56;12.80;74.40
80274;DHT22;69576;51.902;-8.462;2023-11-21T06:52:22;12.80;74.70
80274;DHT22;69576;51.902;-8.462;2023-11-21T06:54:48;12.90;74.60
80274;DHT22;69576;51.902;-8.462;2023-11-21T06:57:16;12.90;74.80
80274;DHT22;69576;51.902;-8.462;2023-11-21T06:59:45;12.90;74.50
80274;DHT22;69576;51.902;-8.462;2023-11-21T07:02:10;12.90;75.00
80274;DHT22;69576;51.902;-8.462;2023-11-21T07:04:37;13.00;74.80
80274;DHT22;69576;51.902;-8.462;2023-11-21T07:07:03;13.00;74.90
80274;DHT22;69576;51.902;-8.462;2023-11-21T07:09:29;13.00;74.90
80274;DHT22;69576;51.902;-8.462;2023-11-21T07:11:59;13.00;74.50
80274;DHT22;69576;51.902;-8.462;2023-11-21T07:14:25;13.00;74.50
80274;DHT22;69576;51.902;-8.462;2023-11-21T07:16:50;13.00;74.30
80274;DHT22;69576;51.902;-8.462;2023-11-21T07:19:20;13.00;74.30
80274;DHT22;69576;51.902;-8.462;2023-11-21T07:21:47;13.10;74.50
80274;DHT22;69576;51.902;-8.462;2023-11-21T07:24:18;13.10;74.50
80274;DHT22;69576;51.902;-8.462;2023-11-21T07:26:44;13.10;74.50
80274;DHT22;69576;51.902;-8.462;2023-11-21T07:29:12;13.10;74.60
80274;DHT22;69576;51.902;-8.462;2023-11-21T07:31:40;13.10;74.80
80274;DHT22;69576;51.902;-8.462;2023-11-21T07:34:07;13.10;74.60
80274;DHT22;69576;51.902;-8.462;2023-11-21T07:36:33;13.10;74.60
80274;DHT22;69576;51.902;-8.462;2023-11-21T07:38:59;13.10;75.00
80274;DHT22;69576;51.902;-8.462;2023-11-21T07:41:30;13.10;74.40
80274;DHT22;69576;51.902;-8.462;2023-11-21T07:43:55;13.20;74.50
80274;DHT22;69576;51.902;-8.462;2023-11-21T07:46:23;13.20;74.60
80274;DHT22;69576;51.902;-8.462;2023-11-21T07:48:52;13.20;74.80
80274;DHT22;69576;51.902;-8.462;2023-11-21T07:51:19;13.30;74.90
80274;DHT22;69576;51.902;-8.462;2023-11-21T07:53:50;13.30;75.00
80274;DHT22;69576;51.902;-8.462;2023-11-21T07:56:20;13.40;76.10
80274;DHT22;69576;51.902;-8.462;2023-11-21T07:58:50;13.50;74.90
80274;DHT22;69576;51.902;-8.462;2023-11-21T08:01:16;13.50;74.60
80274;DHT22;69576;51.902;-8.462;2023-11-21T08:03:42;13.50;74.80
80274;DHT22;69576;51.902;-8.462;2023-11-21T08:06:09;13.60;74.70
80274;DHT22;69576;51.902;-8.462;2023-11-21T08:08:37;13.60;74.10
80274;DHT22;69576;51.902;-8.462;2023-11-21T08:11:06;13.60;73.90
80274;DHT22;69576;51.902;-8.462;2023-11-21T08:13:33;13.60;73.50
80274;DHT22;69576;51.902;-8.462;2023-11-21T08:16:02;13.60;73.60
80274;DHT22;69576;51.902;-8.462;2023-11-21T08:18:32;13.60;73.50
80274;DHT22;69576;51.902;-8.462;2023-11-21T08:20:59;13.60;73.70
80274;DHT22;69576;51.902;-8.462;2023-11-21T08:23:26;13.70;73.60
80274;DHT22;69576;51.902;-8.462;2023-11-21T08:25:52;13.70;73.70
80274;DHT22;69576;51.902;-8.462;2023-11-21T08:28:18;13.70;73.60
80274;DHT22;69576;51.902;-8.462;2023-11-21T08:30:44;13.70;73.70
80274;DHT22;69576;51.902;-8.462;2023-11-21T08:33:12;13.70;73.30
80274;DHT22;69576;51.902;-8.462;2023-11-21T08:35:40;13.70;73.40
80274;DHT22;69576;51.902;-8.462;2023-11-21T08:38:06;13.80;73.40
80274;DHT22;69576;51.902;-8.462;2023-11-21T08:40:35;13.80;73.30
80274;DHT22;69576;51.902;-8.462;2023-11-21T08:43:03;13.80;73.40
80274;DHT22;69576;51.902;-8.462;2023-11-21T08:45:37;13.90;73.30
80274;DHT22;69576;51.902;-8.462;2023-11-21T08:48:03;13.90;73.40
80274;DHT22;69576;51.902;-8.462;2023-11-21T08:50:31;13.90;73.30
80274;DHT22;69576;51.902;-8.462;2023-11-21T08:53:01;13.90;73.50
80274;DHT22;69576;51.902;-8.462;2023-11-21T08:55:29;13.90;73.00
80274;DHT22;69576;51.902;-8.462;2023-11-21T08:57:55;13.90;73.20
80274;DHT22;69576;51.902;-8.462;2023-11-21T09:00:20;13.90;73.40
80274;DHT22;69576;51.902;-8.462;2023-11-21T09:02:49;13.90;73.20
80274;DHT22;69576;51.902;-8.462;2023-11-21T09:05:15;14.00;73.40
80274;DHT22;69576;51.902;-8.462;2023-11-21T09:07:44;14.00;73.20
80274;DHT22;69576;51.902;-8.462;2023-11-21T09:10:12;14.00;73.50
80274;DHT22;69576;51.902;-8.462;2023-11-21T09:12:38;14.00;73.00
80274;DHT22;69576;51.902;-8.462;2023-11-21T09:15:10;14.00;73.00
80274;DHT22;69576;51.902;-8.462;2023-11-21T09:17:40;14.00;73.00
80274;DHT22;69576;51.902;-8.462;2023-11-21T09:20:08;13.90;72.70
80274;DHT22;69576;51.902;-8.462;2023-11-21T09:22:35;14.00;73.30
80274;DHT22;69576;51.902;-8.462;2023-11-21T09:25:06;14.00;73.30
80274;DHT22;69576;51.902;-8.462;2023-11-21T09:27:34;14.00;72.80
80274;DHT22;69576;51.902;-8.462;2023-11-21T09:30:01;14.00;72.80
80274;DHT22;69576;51.902;-8.462;2023-11-21T09:32:31;14.00;72.90
80274;DHT22;69576;51.902;-8.462;2023-11-21T09:34:59;14.00;72.70
80274;DHT22;69576;51.902;-8.462;2023-11-21T09:37:30;14.00;72.70
80274;DHT22;69576;51.902;-8.462;2023-11-21T09:39:56;14.00;72.90
80274;DHT22;69576;51.902;-8.462;2023-11-21T09:42:43;14.10;72.80
80274;DHT22;69576;51.902;-8.462;2023-11-21T09:47:46;14.10;72.90
80274;DHT22;69576;51.902;-8.462;2023-11-21T09:50:16;14.20;72.40
80274;DHT22;69576;51.902;-8.462;2023-11-21T09:55:25;14.20;71.80
80274;DHT22;69576;51.902;-8.462;2023-11-21T09:57:58;14.20;71.80
80274;DHT22;69576;51.902;-8.462;2023-11-21T10:00:24;14.20;71.60
80274;DHT22;69576;51.902;-8.462;2023-11-21T10:02:54;14.20;71.90
80274;DHT22;69576;51.902;-8.462;2023-11-21T10:05:22;14.20;71.70
80274;DHT22;69576;51.902;-8.462;2023-11-21T10:07:50;14.20;71.70
80274;DHT22;69576;51.902;-8.462;2023-11-21T10:10:19;14.20;71.70
80274;DHT22;69576;51.902;-8.462;2023-11-21T10:12:49;14.30;71.70
80274;DHT22;69576;51.902;-8.462;2023-11-21T10:15:21;14.20;71.40
80274;DHT22;69576;51.902;-8.462;2023-11-21T10:17:50;14.30;71.40
80274;DHT22;69576;51.902;-8.462;2023-11-21T10:20:19;14.30;71.40
80274;DHT22;69576;51.902;-8.462;2023-11-21T10:22:48;14.30;71.20
80274;DHT22;69576;51.902;-8.462;2023-11-21T10:25:15;14.30;71.50
80274;DHT22;69576;51.902;-8.462;2023-11-21T10:27:41;14.30;71.80
80274;DHT22;69576;51.902;-8.462;2023-11-21T10:30:09;14.40;71.60
80274;DHT22;69576;51.902;-8.462;2023-11-21T10:32:41;14.40;71.80
80274;DHT22;69576;51.902;-8.462;2023-11-21T10:35:09;14.40;71.90
80274;DHT22;69576;51.902;-8.462;2023-11-21T10:37:41;14.50;71.60
80274;DHT22;69576;51.902;-8.462;2023-11-21T10:40:12;14.50;71.60
80274;DHT22;69576;51.902;-8.462;2023-11-21T10:42:39;14.50;71.50
80274;DHT22;69576;51.902;-8.462;2023-11-21T10:45:08;14.50;71.40
80274;DHT22;69576;51.902;-8.462;2023-11-21T10:47:44;14.60;71.50
80274;DHT22;69576;51.902;-8.462;2023-11-21T10:50:10;14.60;71.20
80274;DHT22;69576;51.902;-8.462;2023-11-21T10:52:42;14.60;71.00
80274;DHT22;69576;51.902;-8.462;2023-11-21T10:55:22;14.60;71.20
80274;DHT22;69576;51.902;-8.462;2023-11-21T10:57:53;14.60;70.90
80274;DHT22;69576;51.902;-8.462;2023-11-21T11:00:24;14.60;71.10
80274;DHT22;69576;51.902;-8.462;2023-11-21T11:02:54;14.70;71.10
80274;DHT22;69576;51.902;-8.462;2023-11-21T11:05:22;14.70;70.90
80274;DHT22;69576;51.902;-8.462;2023-11-21T11:08:02;14.70;70.70
80274;DHT22;69576;51.902;-8.462;2023-11-21T11:10:32;14.70;70.40
80274;DHT22;69576;51.902;-8.462;2023-11-21T11:13:00;14.80;71.10
80274;DHT22;69576;51.902;-8.462;2023-11-21T11:15:28;14.90;71.10
80274;DHT22;69576;51.902;-8.462;2023-11-21T11:17:57;14.90;70.80
80274;DHT22;69576;51.902;-8.462;2023-11-21T11:20:32;15.00;71.00
80274;DHT22;69576;51.902;-8.462;2023-11-21T11:29:10;15.20;70.10
80274;DHT22;69576;51.902;-8.462;2023-11-21T11:31:25;15.20;69.70
80274;DHT22;69576;51.902;-8.462;2023-11-21T11:36:48;15.10;69.60
80274;DHT22;69576;51.902;-8.462;2023-11-21T11:39:40;15.10;69.70
80274;DHT22;69576;51.902;-8.462;2023-11-21T11:42:14;15.20;69.90
80274;DHT22;69576;51.902;-8.462;2023-11-21T11:47:16;15.20;69.40
80274;DHT22;69576;51.902;-8.462;2023-11-21T11:55:02;15.20;69.40
80274;DHT22;69576;51.902;-8.462;2023-11-21T11:57:30;15.20;69.80
80274;DHT22;69576;51.902;-8.462;2023-11-21T12:00:13;15.20;69.60
80274;DHT22;69576;51.902;-8.462;2023-11-21T12:02:50;15.30;69.80
80274;DHT22;69576;51.902;-8.462;2023-11-21T12:05:21;15.30;69.90
80274;DHT22;69576;51.902;-8.462;2023-11-21T12:10:17;15.30;69.70
80274;DHT22;69576;51.902;-8.462;2023-11-21T12:12:45;15.30;69.70
80274;DHT22;69576;51.902;-8.462;2023-11-21T12:15:11;15.30;69.90
80274;DHT22;69576;51.902;-8.462;2023-11-21T12:17:39;15.30;69.90
80274;DHT22;69576;51.902;-8.462;2023-11-21T12:20:08;15.30;69.80
80274;DHT22;69576;51.902;-8.462;2023-11-21T12:22:50;15.30;69.60
80274;DHT22;69576;51.902;-8.462;2023-11-21T12:25:20;15.30;69.50
80274;DHT22;69576;51.902;-8.462;2023-11-21T12:27:49;15.30;69.60
80274;DHT22;69576;51.902;-8.462;2023-11-21T12:30:16;15.30;69.50
80274;DHT22;69576;51.902;-8.462;2023-11-21T12:32:48;15.30;69.70
80274;DHT22;69576;51.902;-8.462;2023-11-21T12:35:14;15.30;69.90
80274;DHT22;69576;51.902;-8.462;2023-11-21T12:37:44;15.40;69.40
80274;DHT22;69576;51.902;-8.462;2023-11-21T12:40:13;15.40;69.70
80274;DHT22;69576;51.902;-8.462;2023-11-21T12:42:45;15.40;69.60
80274;DHT22;69576;51.902;-8.462;2023-11-21T12:47:50;15.50;69.40
80274;DHT22;69576;51.902;-8.462;2023-11-21T12:50:20;15.50;69.50
80274;DHT22;69576;51.902;-8.462;2023-11-21T12:52:50;15.50;69.30
80274;DHT22;69576;51.902;-8.462;2023-11-21T12:55:21;15.50;69.20
80274;DHT22;69576;51.902;-8.462;2023-11-21T13:00:32;15.50;69.40
80274;DHT22;69576;51.902;-8.462;2023-11-21T13:02:59;15.50;69.30
80274;DHT22;69576;51.902;-8.462;2023-11-21T13:05:27;15.50;69.10
80274;DHT22;69576;51.902;-8.462;2023-11-21T13:07:58;15.50;69.20
80274;DHT22;69576;51.902;-8.462;2023-11-21T13:10:30;15.60;69.20
80274;DHT22;69576;51.902;-8.462;2023-11-21T13:13:02;15.60;69.30
80274;DHT22;69576;51.902;-8.462;2023-11-21T13:15:31;15.60;69.10
80274;DHT22;69576;51.902;-8.462;2023-11-21T13:17:58;15.60;69.20
80274;DHT22;69576;51.902;-8.462;2023-11-21T13:20:30;15.60;69.20
80274;DHT22;69576;51.902;-8.462;2023-11-21T13:22:56;15.50;69.20
80274;DHT22;69576;51.902;-8.462;2023-11-21T13:25:25;15.50;69.20
80274;DHT22;69576;51.902;-8.462;2023-11-21T13:27:59;15.50;69.00
80274;DHT22;69576;51.902;-8.462;2023-11-21T13:30:30;15.50;69.20
80274;DHT22;69576;51.902;-8.462;2023-11-21T13:33:02;15.50;69.10
80274;DHT22;69576;51.902;-8.462;2023-11-21T13:35:32;15.50;69.00
80274;DHT22;69576;51.902;-8.462;2023-11-21T13:38:05;15.50;69.00
80274;DHT22;69576;51.902;-8.462;2023-11-21T13:40:32;15.50;68.70
80274;DHT22;69576;51.902;-8.462;2023-11-21T13:43:02;15.40;68.90
80274;DHT22;69576;51.902;-8.462;2023-11-21T13:45:33;15.40;69.10
80274;DHT22;69576;51.902;-8.462;2023-11-21T13:48:02;15.40;69.00
80274;DHT22;69576;51.902;-8.462;2023-11-21T13:50:27;15.50;69.10
80274;DHT22;69576;51.902;-8.462;2023-11-21T13:53:02;15.50;69.10
80274;DHT22;69576;51.902;-8.462;2023-11-21T13:55:32;15.50;69.00
80274;DHT22;69576;51.902;-8.462;2023-11-21T13:57:58;15.50;69.00
80274;DHT22;69576;51.902;-8.462;2023-11-21T14:00:27;15.50;68.80
80274;DHT22;69576;51.902;-8.462;2023-11-21T14:03:07;15.50;69.00
80274;DHT22;69576;51.902;-8.462;2023-11-21T14:05:45;15.50;69.00
80274;DHT22;69576;51.902;-8.462;2023-11-21T14:08:13;15.50;68.90
80274;DHT22;69576;51.902;-8.462;2023-11-21T14:10:44;15.50;68.80
80274;DHT22;69576;51.902;-8.462;2023-11-21T14:13:14;15.40;69.00
80274;DHT22;69576;51.902;-8.462;2023-11-21T14:15:42;15.40;68.80
80274;DHT22;69576;51.902;-8.462;2023-11-21T14:18:10;15.40;68.70
80274;DHT22;69576;51.902;-8.462;2023-11-21T14:20:40;15.40;68.80
80274;DHT22;69576;51.902;-8.462;2023-11-21T14:23:09;15.30;68.80
80274;DHT22;69576;51.902;-8.462;2023-11-21T14:25:37;15.30;68.60
80274;DHT22;69576;51.902;-8.462;2023-11-21T14:28:07;15.30;68.60
80274;DHT22;69576;51.902;-8.462;2023-11-21T14:30:33;15.20;68.50
80274;DHT22;69576;51.902;-8.462;2023-11-21T14:33:04;15.20;69.00
80274;DHT22;69576;51.902;-8.462;2023-11-21T14:35:29;15.20;68.90
80274;DHT22;69576;51.902;-8.462;2023-11-21T14:38:01;15.20;68.70
80274;DHT22;69576;51.902;-8.462;2023-11-21T14:40:28;15.20;68.60
80274;DHT22;69576;51.902;-8.462;2023-11-21T14:42:59;15.10;68.60
80274;DHT22;69576;51.902;-8.462;2023-11-21T14:45:25;15.10;68.60
80274;DHT22;69576;51.902;-8.462;2023-11-21T14:47:55;15.00;68.70
80274;DHT22;69576;51.902;-8.462;2023-11-21T14:50:42;15.00;68.90
80274;DHT22;69576;51.902;-8.462;2023-11-21T14:53:15;15.00;68.70
80274;DHT22;69576;51.902;-8.462;2023-11-21T14:56:02;15.00;68.80
80274;DHT22;69576;51.902;-8.462;2023-11-21T14:58:29;15.00;69.00
80274;DHT22;69576;51.902;-8.462;2023-11-21T15:00:57;15.00;69.00
80274;DHT22;69576;51.902;-8.462;2023-11-21T15:03:27;14.90;69.00
80274;DHT22;69576;51.902;-8.462;2023-11-21T15:06:00;14.90;69.00
80274;DHT22;69576;51.902;-8.462;2023-11-21T15:08:53;14.90;68.90
80274;DHT22;69576;51.902;-8.462;2023-11-21T15:11:35;14.90;69.20
80274;DHT22;69576;51.902;-8.462;2023-11-21T15:14:03;14.90;69.20
80274;DHT22;69576;51.902;-8.462;2023-11-21T15:16:35;14.80;69.10
80274;DHT22;69576;51.902;-8.462;2023-11-21T15:19:13;14.80;69.00
80274;DHT22;69576;51.902;-8.462;2023-11-21T15:21:46;14.80;69.10
80274;DHT22;69576;51.902;-8.462;2023-11-21T15:24:12;14.80;69.20
80274;DHT22;69576;51.902;-8.462;2023-11-21T15:26:38;14.80;69.40
80274;DHT22;69576;51.902;-8.462;2023-11-21T15:29:04;14.80;69.20
80274;DHT22;69576;51.902;-8.462;2023-11-21T15:31:35;14.80;69.60
80274;DHT22;69576;51.902;-8.462;2023-11-21T15:34:02;14.70;68.90
80274;DHT22;69576;51.902;-8.462;2023-11-21T15:36:30;14.70;68.40
80274;DHT22;69576;51.902;-8.462;2023-11-21T15:38:56;14.60;67.70
80274;DHT22;69576;51.902;-8.462;2023-11-21T15:41:26;14.60;67.20
80274;DHT22;69576;51.902;-8.462;2023-11-21T15:43:57;14.50;67.00
80274;DHT22;69576;51.902;-8.462;2023-11-21T15:46:22;14.50;66.80
80274;DHT22;69576;51.902;-8.462;2023-11-21T15:48:48;14.50;66.80
80274;DHT22;69576;51.902;-8.462;2023-11-21T15:51:20;14.40;66.50
80274;DHT22;69576;51.902;-8.462;2023-11-21T15:53:46;14.40;66.40
80274;DHT22;69576;51.902;-8.462;2023-11-21T15:56:16;14.40;66.30